sensor_id;sensor_type;location;lat;lon;timestamp;P1;durP1;ratioP1;P2;durP2;ratioP2
33862;SDS011;20158;51.436;-2.742;2023-08-12T00:01:58;8.80;;;3.92;;
33862;SDS011;20158;51.436;-2.742;2023-08-12T00:04:24;11.25;;;4.32;;
33862;SDS011;20158;51.436;-2.742;2023-08-12T00:06:51;10.50;;;4.10;;
33862;SDS011;20158;51.436;-2.742;2023-08-12T00:09:20;11.00;;;4.07;;
33862;SDS011;20158;51.436;-2.742;2023-08-12T00:11:46;10.85;;;3.47;;
33862;SDS011;20158;51.436;-2.742;2023-08-12T00:14:13;9.05;;;4.05;;
33862;SDS011;20158;51.436;-2.742;2023-08-12T00:16:39;9.10;;;3.03;;
33862;SDS011;20158;51.436;-2.742;2023-08-12T00:19:05;10.05;;;3.30;;
33862;SDS011;20158;51.436;-2.742;2023-08-12T00:21:33;13.32;;;3.72;;
33862;SDS011;20158;51.436;-2.742;2023-08-12T00:23:59;9.05;;;3.40;;
33862;SDS011;20158;51.436;-2.742;2023-08-12T00:26:26;10.15;;;3.10;;
33862;SDS011;20158;51.436;-2.742;2023-08-12T00:28:52;11.40;;;3.85;;
33862;SDS011;20158;51.436;-2.742;2023-08-12T00:31:18;8.45;;;3.10;;
33862;SDS011;20158;51.436;-2.742;2023-08-12T00:33:46;11.20;;;3.70;;
33862;SDS011;20158;51.436;-2.742;2023-08-12T00:36:12;9.80;;;3.10;;
33862;SDS011;20158;51.436;-2.742;2023-08-12T00:38:38;10.43;;;3.60;;
33862;SDS011;20158;51.436;-2.742;2023-08-12T00:41:05;8.38;;;4.25;;
33862;SDS011;20158;51.436;-2.742;2023-08-12T00:43:30;9.63;;;3.13;;
33862;SDS011;20158;51.436;-2.742;2023-08-12T00:45:56;13.68;;;3.55;;
33862;SDS011;20158;51.436;-2.742;2023-08-12T00:48:23;9.93;;;3.78;;
33862;SDS011;20158;51.436;-2.742;2023-08-12T00:50:49;7.97;;;2.75;;
33862;SDS011;20158;51.436;-2.742;2023-08-12T00:53:15;9.55;;;3.63;;
33862;SDS011;20158;51.436;-2.742;2023-08-12T00:55:41;8.32;;;2.88;;
33862;SDS011;20158;51.436;-2.742;2023-08-12T00:58:07;9.77;;;4.32;;
33862;SDS011;20158;51.436;-2.742;2023-08-12T01:00:34;11.10;;;3.90;;
33862;SDS011;20158;51.436;-2.742;2023-08-12T01:03:00;10.50;;;3.38;;
33862;SDS011;20158;51.436;-2.742;2023-08-12T01:05:26;10.20;;;2.88;;
33862;SDS011;20158;51.436;-2.742;2023-08-12T01:07:53;8.25;;;3.20;;
33862;SDS011;20158;51.436;-2.742;2023-08-12T01:10:19;9.63;;;4.53;;
33862;SDS011;20158;51.436;-2.742;2023-08-12T01:12:57;8.05;;;3.67;;
33862;SDS011;20158;51.436;-2.742;2023-08-12T01:15:32;9.18;;;3.67;;
33862;SDS011;20158;51.436;-2.742;2023-08-12T01:17:59;13.00;;;4.75;;
33862;SDS011;20158;51.436;-2.742;2023-08-12T01:20:30;15.70;;;4.47;;
33862;SDS011;20158;51.436;-2.742;2023-08-12T01:22:58;11.00;;;3.92;;
33862;SDS011;20158;51.436;-2.742;2023-08-12T01:25:40;10.10;;;3.60;;
33862;SDS011;20158;51.436;-2.742;2023-08-12T01:28:07;8.73;;;3.50;;
33862;SDS011;20158;51.436;-2.742;2023-08-12T01:30:39;10.60;;;3.30;;
33862;SDS011;20158;51.436;-2.742;2023-08-12T01:33:39;9.63;;;3.28;;
33862;SDS011;20158;51.436;-2.742;2023-08-12T01:36:15;12.80;;;3.67;;
33862;SDS011;20158;51.436;-2.742;2023-08-12T01:38:42;12.45;;;4.35;;
33862;SDS011;20158;51.436;-2.742;2023-08-12T01:41:09;8.85;;;3.17;;
33862;SDS011;20158;51.436;-2.742;2023-08-12T01:43:37;13.30;;;4.30;;
33862;SDS011;20158;51.436;-2.742;2023-08-12T01:46:04;9.27;;;3.33;;
33862;SDS011;20158;51.436;-2.742;2023-08-12T01:48:30;12.15;;;3.65;;
33862;SDS011;20158;51.436;-2.742;2023-08-12T01:50:56;7.65;;;3.35;;
33862;SDS011;20158;51.436;-2.742;2023-08-12T01:53:22;9.60;;;3.63;;
33862;SDS011;20158;51.436;-2.742;2023-08-12T01:55:49;8.68;;;3.60;;
33862;SDS011;20158;51.436;-2.742;2023-08-12T01:58:16;12.25;;;3.55;;
33862;SDS011;20158;51.436;-2.742;2023-08-12T02:00:43;11.45;;;4.00;;
33862;SDS011;20158;51.436;-2.742;2023-08-12T02:03:08;8.23;;;3.55;;
33862;SDS011;20158;51.436;-2.742;2023-08-12T02:05:34;10.73;;;3.47;;
33862;SDS011;20158;51.436;-2.742;2023-08-12T02:08:03;10.93;;;3.70;;
33862;SDS011;20158;51.436;-2.742;2023-08-12T02:10:30;11.40;;;3.33;;
33862;SDS011;20158;51.436;-2.742;2023-08-12T02:12:56;13.45;;;3.35;;
33862;SDS011;20158;51.436;-2.742;2023-08-12T02:15:22;11.98;;;3.38;;
33862;SDS011;20158;51.436;-2.742;2023-08-12T02:17:48;10.13;;;3.75;;
33862;SDS011;20158;51.436;-2.742;2023-08-12T02:20:14;12.10;;;2.92;;
33862;SDS011;20158;51.436;-2.742;2023-08-12T02:22:40;10.05;;;3.58;;
33862;SDS011;20158;51.436;-2.742;2023-08-12T02:25:06;11.98;;;3.85;;
33862;SDS011;20158;51.436;-2.742;2023-08-12T02:27:33;9.38;;;3.47;;
33862;SDS011;20158;51.436;-2.742;2023-08-12T02:29:59;11.52;;;4.30;;
33862;SDS011;20158;51.436;-2.742;2023-08-12T02:32:26;11.80;;;4.20;;
33862;SDS011;20158;51.436;-2.742;2023-08-12T02:34:52;13.18;;;3.58;;
33862;SDS011;20158;51.436;-2.742;2023-08-12T02:37:18;9.15;;;3.22;;
33862;SDS011;20158;51.436;-2.742;2023-08-12T02:39:45;11.07;;;3.55;;
33862;SDS011;20158;51.436;-2.742;2023-08-12T02:42:11;10.40;;;3.08;;
33862;SDS011;20158;51.436;-2.742;2023-08-12T02:44:36;11.82;;;4.10;;
33862;SDS011;20158;51.436;-2.742;2023-08-12T02:47:03;13.02;;;4.18;;
33862;SDS011;20158;51.436;-2.742;2023-08-12T02:49:29;11.85;;;4.00;;
33862;SDS011;20158;51.436;-2.742;2023-08-12T02:51:54;13.70;;;4.78;;
33862;SDS011;20158;51.436;-2.742;2023-08-12T02:54:20;12.98;;;4.35;;
33862;SDS011;20158;51.436;-2.742;2023-08-12T02:56:46;11.85;;;3.55;;
33862;SDS011;20158;51.436;-2.742;2023-08-12T02:59:12;12.07;;;3.55;;
33862;SDS011;20158;51.436;-2.742;2023-08-12T03:01:40;11.90;;;3.58;;
33862;SDS011;20158;51.436;-2.742;2023-08-12T03:04:07;14.55;;;4.78;;
33862;SDS011;20158;51.436;-2.742;2023-08-12T03:06:33;9.68;;;3.65;;
33862;SDS011;20158;51.436;-2.742;2023-08-12T03:08:59;10.98;;;3.45;;
33862;SDS011;20158;51.436;-2.742;2023-08-12T03:11:25;9.98;;;3.50;;
33862;SDS011;20158;51.436;-2.742;2023-08-12T03:13:53;12.98;;;3.75;;
33862;SDS011;20158;51.436;-2.742;2023-08-12T03:16:20;11.15;;;3.67;;
33862;SDS011;20158;51.436;-2.742;2023-08-12T03:18:46;11.38;;;4.43;;
33862;SDS011;20158;51.436;-2.742;2023-08-12T03:21:12;14.30;;;4.93;;
33862;SDS011;20158;51.436;-2.742;2023-08-12T03:23:40;14.40;;;3.85;;
33862;SDS011;20158;51.436;-2.742;2023-08-12T03:26:08;13.23;;;4.47;;
33862;SDS011;20158;51.436;-2.742;2023-08-12T03:28:34;12.38;;;4.38;;
33862;SDS011;20158;51.436;-2.742;2023-08-12T03:31:00;21.13;;;5.15;;
33862;SDS011;20158;51.436;-2.742;2023-08-12T03:33:26;14.90;;;4.53;;
33862;SDS011;20158;51.436;-2.742;2023-08-12T03:35:54;13.13;;;3.15;;
33862;SDS011;20158;51.436;-2.742;2023-08-12T03:38:21;20.83;;;4.90;;
33862;SDS011;20158;51.436;-2.742;2023-08-12T03:40:47;9.25;;;3.65;;
33862;SDS011;20158;51.436;-2.742;2023-08-12T03:43:17;13.35;;;5.38;;
33862;SDS011;20158;51.436;-2.742;2023-08-12T03:45:44;10.77;;;3.13;;
33862;SDS011;20158;51.436;-2.742;2023-08-12T03:48:12;12.68;;;4.22;;
33862;SDS011;20158;51.436;-2.742;2023-08-12T03:50:39;12.43;;;3.92;;
33862;SDS011;20158;51.436;-2.742;2023-08-12T03:53:06;13.85;;;4.70;;
33862;SDS011;20158;51.436;-2.742;2023-08-12T03:55:34;12.88;;;3.63;;
33862;SDS011;20158;51.436;-2.742;2023-08-12T03:58:01;11.93;;;3.60;;
33862;SDS011;20158;51.436;-2.742;2023-08-12T04:00:28;12.88;;;3.55;;
33862;SDS011;20158;51.436;-2.742;2023-08-12T04:02:58;11.40;;;3.55;;
33862;SDS011;20158;51.436;-2.742;2023-08-12T04:05:24;13.13;;;3.33;;
33862;SDS011;20158;51.436;-2.742;2023-08-12T04:07:50;13.38;;;3.30;;
33862;SDS011;20158;51.436;-2.742;2023-08-12T04:10:16;13.75;;;4.18;;
33862;SDS011;20158;51.436;-2.742;2023-08-12T04:12:42;15.15;;;4.30;;
33862;SDS011;20158;51.436;-2.742;2023-08-12T04:15:09;11.85;;;4.38;;
33862;SDS011;20158;51.436;-2.742;2023-08-12T04:17:35;10.23;;;3.20;;
33862;SDS011;20158;51.436;-2.742;2023-08-12T04:20:06;15.13;;;4.95;;
33862;SDS011;20158;51.436;-2.742;2023-08-12T04:22:34;9.88;;;3.35;;
33862;SDS011;20158;51.436;-2.742;2023-08-12T04:25:01;9.57;;;3.08;;
33862;SDS011;20158;51.436;-2.742;2023-08-12T04:27:28;13.25;;;4.25;;
33862;SDS011;20158;51.436;-2.742;2023-08-12T04:29:55;13.40;;;4.00;;
33862;SDS011;20158;51.436;-2.742;2023-08-12T04:32:21;14.88;;;3.75;;
33862;SDS011;20158;51.436;-2.742;2023-08-12T04:34:49;11.98;;;3.33;;
33862;SDS011;20158;51.436;-2.742;2023-08-12T04:37:15;12.80;;;4.07;;
33862;SDS011;20158;51.436;-2.742;2023-08-12T04:39:43;8.00;;;2.92;;
33862;SDS011;20158;51.436;-2.742;2023-08-12T04:42:10;12.95;;;5.47;;
33862;SDS011;20158;51.436;-2.742;2023-08-12T04:44:36;9.75;;;3.08;;
33862;SDS011;20158;51.436;-2.742;2023-08-12T04:47:02;10.77;;;2.83;;
33862;SDS011;20158;51.436;-2.742;2023-08-12T04:49:31;13.88;;;4.38;;
33862;SDS011;20158;51.436;-2.742;2023-08-12T04:51:57;12.43;;;4.03;;
33862;SDS011;20158;51.436;-2.742;2023-08-12T04:54:24;13.30;;;4.75;;
33862;SDS011;20158;51.436;-2.742;2023-08-12T04:56:50;9.63;;;3.30;;
33862;SDS011;20158;51.436;-2.742;2023-08-12T04:59:16;14.18;;;4.00;;
33862;SDS011;20158;51.436;-2.742;2023-08-12T05:01:42;11.85;;;3.85;;
33862;SDS011;20158;51.436;-2.742;2023-08-12T05:04:08;15.02;;;3.25;;
33862;SDS011;20158;51.436;-2.742;2023-08-12T05:06:34;15.00;;;3.78;;
33862;SDS011;20158;51.436;-2.742;2023-08-12T05:09:01;9.23;;;3.45;;
33862;SDS011;20158;51.436;-2.742;2023-08-12T05:11:29;11.80;;;3.25;;
33862;SDS011;20158;51.436;-2.742;2023-08-12T05:13:55;11.77;;;3.58;;
33862;SDS011;20158;51.436;-2.742;2023-08-12T05:16:21;16.50;;;4.30;;
33862;SDS011;20158;51.436;-2.742;2023-08-12T05:18:47;14.27;;;4.25;;
33862;SDS011;20158;51.436;-2.742;2023-08-12T05:21:13;12.50;;;3.65;;
33862;SDS011;20158;51.436;-2.742;2023-08-12T05:23:41;16.23;;;4.80;;
33862;SDS011;20158;51.436;-2.742;2023-08-12T05:26:07;11.52;;;4.20;;
33862;SDS011;20158;51.436;-2.742;2023-08-12T05:28:33;14.05;;;4.85;;
33862;SDS011;20158;51.436;-2.742;2023-08-12T05:31:02;11.95;;;3.70;;
33862;SDS011;20158;51.436;-2.742;2023-08-12T05:33:28;10.15;;;4.28;;
33862;SDS011;20158;51.436;-2.742;2023-08-12T05:35:54;18.85;;;4.63;;
33862;SDS011;20158;51.436;-2.742;2023-08-12T05:38:20;19.10;;;5.63;;
33862;SDS011;20158;51.436;-2.742;2023-08-12T05:40:47;16.58;;;5.35;;
33862;SDS011;20158;51.436;-2.742;2023-08-12T05:43:13;13.85;;;4.30;;
33862;SDS011;20158;51.436;-2.742;2023-08-12T05:45:39;13.48;;;3.38;;
33862;SDS011;20158;51.436;-2.742;2023-08-12T05:48:05;14.38;;;3.88;;
33862;SDS011;20158;51.436;-2.742;2023-08-12T05:50:33;11.85;;;3.42;;
33862;SDS011;20158;51.436;-2.742;2023-08-12T05:52:59;16.27;;;3.58;;
33862;SDS011;20158;51.436;-2.742;2023-08-12T05:55:25;17.52;;;3.97;;
33862;SDS011;20158;51.436;-2.742;2023-08-12T05:57:51;19.08;;;4.50;;
33862;SDS011;20158;51.436;-2.742;2023-08-12T06:00:17;17.52;;;4.55;;
33862;SDS011;20158;51.436;-2.742;2023-08-12T06:02:43;16.95;;;4.13;;
33862;SDS011;20158;51.436;-2.742;2023-08-12T06:05:09;12.82;;;3.97;;
33862;SDS011;20158;51.436;-2.742;2023-08-12T06:07:36;18.27;;;4.57;;
33862;SDS011;20158;51.436;-2.742;2023-08-12T06:10:02;14.63;;;3.75;;
33862;SDS011;20158;51.436;-2.742;2023-08-12T06:12:29;17.45;;;3.55;;
33862;SDS011;20158;51.436;-2.742;2023-08-12T06:14:55;11.52;;;3.28;;
33862;SDS011;20158;51.436;-2.742;2023-08-12T06:17:21;13.95;;;4.43;;
33862;SDS011;20158;51.436;-2.742;2023-08-12T06:19:47;19.85;;;4.78;;
33862;SDS011;20158;51.436;-2.742;2023-08-12T06:22:15;16.42;;;4.72;;
33862;SDS011;20158;51.436;-2.742;2023-08-12T06:24:42;15.07;;;4.32;;
33862;SDS011;20158;51.436;-2.742;2023-08-12T06:27:11;12.82;;;3.97;;
33862;SDS011;20158;51.436;-2.742;2023-08-12T06:29:37;14.60;;;3.80;;
33862;SDS011;20158;51.436;-2.742;2023-08-12T06:32:03;14.75;;;4.20;;
33862;SDS011;20158;51.436;-2.742;2023-08-12T06:34:29;26.90;;;5.97;;
33862;SDS011;20158;51.436;-2.742;2023-08-12T06:36:56;26.10;;;6.97;;
33862;SDS011;20158;51.436;-2.742;2023-08-12T06:39:25;18.73;;;3.40;;
33862;SDS011;20158;51.436;-2.742;2023-08-12T06:41:51;15.07;;;5.38;;
33862;SDS011;20158;51.436;-2.742;2023-08-12T06:44:18;14.20;;;4.72;;
33862;SDS011;20158;51.436;-2.742;2023-08-12T06:46:44;18.55;;;4.10;;
33862;SDS011;20158;51.436;-2.742;2023-08-12T06:49:13;17.63;;;4.65;;
33862;SDS011;20158;51.436;-2.742;2023-08-12T06:51:39;17.60;;;5.20;;
33862;SDS011;20158;51.436;-2.742;2023-08-12T06:54:05;17.88;;;6.22;;
33862;SDS011;20158;51.436;-2.742;2023-08-12T06:56:31;12.80;;;5.30;;
33862;SDS011;20158;51.436;-2.742;2023-08-12T06:58:57;17.95;;;3.70;;
33862;SDS011;20158;51.436;-2.742;2023-08-12T07:01:23;18.98;;;4.63;;
33862;SDS011;20158;51.436;-2.742;2023-08-12T07:03:52;19.83;;;4.75;;
33862;SDS011;20158;51.436;-2.742;2023-08-12T07:06:18;15.57;;;4.43;;
33862;SDS011;20158;51.436;-2.742;2023-08-12T07:08:44;13.27;;;4.60;;
33862;SDS011;20158;51.436;-2.742;2023-08-12T07:11:10;24.77;;;4.93;;
33862;SDS011;20158;51.436;-2.742;2023-08-12T07:13:36;17.25;;;4.28;;
33862;SDS011;20158;51.436;-2.742;2023-08-12T07:16:03;17.02;;;5.10;;
33862;SDS011;20158;51.436;-2.742;2023-08-12T07:18:34;14.43;;;4.25;;
33862;SDS011;20158;51.436;-2.742;2023-08-12T07:21:00;12.98;;;4.22;;
33862;SDS011;20158;51.436;-2.742;2023-08-12T07:23:26;15.52;;;3.72;;
33862;SDS011;20158;51.436;-2.742;2023-08-12T07:25:52;21.30;;;5.47;;
33862;SDS011;20158;51.436;-2.742;2023-08-12T07:28:18;12.68;;;3.78;;
33862;SDS011;20158;51.436;-2.742;2023-08-12T07:30:50;14.85;;;3.95;;
33862;SDS011;20158;51.436;-2.742;2023-08-12T07:33:20;14.82;;;3.28;;
33862;SDS011;20158;51.436;-2.742;2023-08-12T07:35:47;19.00;;;5.40;;
33862;SDS011;20158;51.436;-2.742;2023-08-12T07:38:13;15.88;;;3.95;;
33862;SDS011;20158;51.436;-2.742;2023-08-12T07:40:39;14.05;;;4.03;;
33862;SDS011;20158;51.436;-2.742;2023-08-12T07:43:05;14.43;;;3.80;;
33862;SDS011;20158;51.436;-2.742;2023-08-12T07:45:31;15.80;;;4.82;;
33862;SDS011;20158;51.436;-2.742;2023-08-12T07:47:58;13.52;;;3.22;;
33862;SDS011;20158;51.436;-2.742;2023-08-12T07:50:25;11.93;;;3.92;;
33862;SDS011;20158;51.436;-2.742;2023-08-12T07:52:50;10.82;;;3.35;;
33862;SDS011;20158;51.436;-2.742;2023-08-12T07:55:20;12.10;;;4.22;;
33862;SDS011;20158;51.436;-2.742;2023-08-12T07:57:49;16.73;;;3.85;;
33862;SDS011;20158;51.436;-2.742;2023-08-12T08:00:15;12.73;;;3.80;;
33862;SDS011;20158;51.436;-2.742;2023-08-12T08:02:41;13.18;;;4.10;;
33862;SDS011;20158;51.436;-2.742;2023-08-12T08:05:07;11.60;;;3.47;;
33862;SDS011;20158;51.436;-2.742;2023-08-12T08:07:33;15.52;;;3.63;;
33862;SDS011;20158;51.436;-2.742;2023-08-12T08:09:59;15.38;;;3.45;;
33862;SDS011;20158;51.436;-2.742;2023-08-12T08:12:26;12.05;;;3.17;;
33862;SDS011;20158;51.436;-2.742;2023-08-12T08:14:52;13.05;;;3.53;;
33862;SDS011;20158;51.436;-2.742;2023-08-12T08:17:18;12.02;;;2.90;;
33862;SDS011;20158;51.436;-2.742;2023-08-12T08:19:44;10.25;;;2.97;;
33862;SDS011;20158;51.436;-2.742;2023-08-12T08:22:10;14.27;;;3.30;;
33862;SDS011;20158;51.436;-2.742;2023-08-12T08:24:36;12.95;;;2.90;;
33862;SDS011;20158;51.436;-2.742;2023-08-12T08:27:02;9.15;;;2.83;;
33862;SDS011;20158;51.436;-2.742;2023-08-12T08:29:32;11.32;;;3.05;;
33862;SDS011;20158;51.436;-2.742;2023-08-12T08:31:58;14.00;;;4.32;;
33862;SDS011;20158;51.436;-2.742;2023-08-12T08:34:24;10.07;;;2.92;;
33862;SDS011;20158;51.436;-2.742;2023-08-12T08:36:50;12.32;;;3.25;;
33862;SDS011;20158;51.436;-2.742;2023-08-12T08:39:16;12.45;;;3.58;;
33862;SDS011;20158;51.436;-2.742;2023-08-12T08:41:43;11.88;;;2.88;;
33862;SDS011;20158;51.436;-2.742;2023-08-12T08:44:13;12.23;;;3.22;;
33862;SDS011;20158;51.436;-2.742;2023-08-12T08:46:41;12.13;;;2.40;;
33862;SDS011;20158;51.436;-2.742;2023-08-12T08:49:12;12.00;;;3.55;;
33862;SDS011;20158;51.436;-2.742;2023-08-12T08:51:40;12.07;;;2.55;;
33862;SDS011;20158;51.436;-2.742;2023-08-12T08:54:08;13.07;;;2.65;;
33862;SDS011;20158;51.436;-2.742;2023-08-12T08:56:38;8.65;;;2.60;;
33862;SDS011;20158;51.436;-2.742;2023-08-12T08:59:04;10.38;;;2.67;;
33862;SDS011;20158;51.436;-2.742;2023-08-12T09:01:30;8.55;;;3.33;;
33862;SDS011;20158;51.436;-2.742;2023-08-12T09:04:00;11.00;;;3.45;;
33862;SDS011;20158;51.436;-2.742;2023-08-12T09:06:29;12.07;;;2.97;;
33862;SDS011;20158;51.436;-2.742;2023-08-12T09:08:56;10.20;;;3.58;;
33862;SDS011;20158;51.436;-2.742;2023-08-12T09:11:22;12.73;;;3.38;;
33862;SDS011;20158;51.436;-2.742;2023-08-12T09:13:52;10.07;;;2.55;;
33862;SDS011;20158;51.436;-2.742;2023-08-12T09:16:18;12.70;;;3.33;;
33862;SDS011;20158;51.436;-2.742;2023-08-12T09:18:44;7.38;;;2.85;;
33862;SDS011;20158;51.436;-2.742;2023-08-12T09:21:11;13.98;;;2.70;;
33862;SDS011;20158;51.436;-2.742;2023-08-12T09:23:38;7.85;;;2.83;;
33862;SDS011;20158;51.436;-2.742;2023-08-12T09:26:16;10.50;;;3.05;;
33862;SDS011;20158;51.436;-2.742;2023-08-12T09:28:43;12.63;;;4.53;;
33862;SDS011;20158;51.436;-2.742;2023-08-12T09:31:25;10.35;;;2.58;;
33862;SDS011;20158;51.436;-2.742;2023-08-12T09:33:54;13.32;;;3.58;;
33862;SDS011;20158;51.436;-2.742;2023-08-12T09:36:23;8.90;;;3.10;;
33862;SDS011;20158;51.436;-2.742;2023-08-12T09:38:52;9.13;;;2.35;;
33862;SDS011;20158;51.436;-2.742;2023-08-12T09:41:18;9.57;;;2.67;;
33862;SDS011;20158;51.436;-2.742;2023-08-12T09:43:44;10.07;;;2.88;;
33862;SDS011;20158;51.436;-2.742;2023-08-12T09:46:11;7.38;;;2.92;;
33862;SDS011;20158;51.436;-2.742;2023-08-12T09:48:40;8.88;;;2.70;;
33862;SDS011;20158;51.436;-2.742;2023-08-12T09:51:07;8.27;;;2.50;;
33862;SDS011;20158;51.436;-2.742;2023-08-12T09:53:34;9.00;;;2.40;;
33862;SDS011;20158;51.436;-2.742;2023-08-12T09:56:10;7.95;;;2.90;;
33862;SDS011;20158;51.436;-2.742;2023-08-12T09:58:37;7.85;;;2.30;;
33862;SDS011;20158;51.436;-2.742;2023-08-12T10:01:08;7.72;;;2.28;;
33862;SDS011;20158;51.436;-2.742;2023-08-12T10:03:36;8.43;;;2.60;;
33862;SDS011;20158;51.436;-2.742;2023-08-12T10:06:03;11.43;;;2.75;;
33862;SDS011;20158;51.436;-2.742;2023-08-12T10:08:36;7.75;;;2.33;;
33862;SDS011;20158;51.436;-2.742;2023-08-12T10:11:03;9.30;;;2.33;;
33862;SDS011;20158;51.436;-2.742;2023-08-12T10:13:29;7.50;;;2.22;;
33862;SDS011;20158;51.436;-2.742;2023-08-12T10:15:55;9.65;;;2.45;;
33862;SDS011;20158;51.436;-2.742;2023-08-12T10:18:22;6.93;;;2.20;;
33862;SDS011;20158;51.436;-2.742;2023-08-12T10:20:50;10.68;;;2.75;;
33862;SDS011;20158;51.436;-2.742;2023-08-12T10:23:18;7.63;;;2.08;;
33862;SDS011;20158;51.436;-2.742;2023-08-12T10:25:44;8.10;;;2.65;;
33862;SDS011;20158;51.436;-2.742;2023-08-12T10:28:18;7.03;;;2.42;;
33862;SDS011;20158;51.436;-2.742;2023-08-12T10:30:45;8.27;;;2.10;;
33862;SDS011;20158;51.436;-2.742;2023-08-12T10:33:14;6.97;;;2.05;;
33862;SDS011;20158;51.436;-2.742;2023-08-12T10:35:48;9.90;;;2.25;;
33862;SDS011;20158;51.436;-2.742;2023-08-12T10:38:17;5.38;;;1.75;;
33862;SDS011;20158;51.436;-2.742;2023-08-12T10:40:43;8.15;;;1.90;;
33862;SDS011;20158;51.436;-2.742;2023-08-12T10:43:11;8.02;;;2.13;;
33862;SDS011;20158;51.436;-2.742;2023-08-12T10:45:42;6.38;;;2.03;;
33862;SDS011;20158;51.436;-2.742;2023-08-12T10:50:45;7.47;;;2.47;;
33862;SDS011;20158;51.436;-2.742;2023-08-12T10:55:48;8.48;;;2.20;;
33862;SDS011;20158;51.436;-2.742;2023-08-12T10:58:24;5.25;;;2.25;;
33862;SDS011;20158;51.436;-2.742;2023-08-12T11:00:56;11.18;;;2.90;;
33862;SDS011;20158;51.436;-2.742;2023-08-12T11:03:24;12.23;;;3.00;;
33862;SDS011;20158;51.436;-2.742;2023-08-12T11:05:50;9.38;;;2.30;;
33862;SDS011;20158;51.436;-2.742;2023-08-12T11:08:24;12.75;;;3.63;;
33862;SDS011;20158;51.436;-2.742;2023-08-12T11:10:55;10.15;;;2.17;;
33862;SDS011;20158;51.436;-2.742;2023-08-12T11:13:22;7.35;;;2.30;;
33862;SDS011;20158;51.436;-2.742;2023-08-12T11:15:49;8.32;;;2.92;;
33862;SDS011;20158;51.436;-2.742;2023-08-12T11:18:16;11.20;;;3.55;;
33862;SDS011;20158;51.436;-2.742;2023-08-12T11:20:44;6.65;;;2.22;;
33862;SDS011;20158;51.436;-2.742;2023-08-12T11:23:13;8.48;;;2.05;;
33862;SDS011;20158;51.436;-2.742;2023-08-12T11:25:41;7.18;;;2.95;;
33862;SDS011;20158;51.436;-2.742;2023-08-12T11:28:09;4.53;;;1.58;;
33862;SDS011;20158;51.436;-2.742;2023-08-12T11:30:36;3.40;;;1.20;;
33862;SDS011;20158;51.436;-2.742;2023-08-12T11:33:02;4.20;;;2.08;;
33862;SDS011;20158;51.436;-2.742;2023-08-12T11:35:31;2.20;;;0.88;;
33862;SDS011;20158;51.436;-2.742;2023-08-12T11:37:58;2.30;;;1.13;;
33862;SDS011;20158;51.436;-2.742;2023-08-12T11:40:25;4.07;;;1.00;;
33862;SDS011;20158;51.436;-2.742;2023-08-12T11:42:52;5.65;;;1.17;;
33862;SDS011;20158;51.436;-2.742;2023-08-12T11:45:21;3.42;;;1.08;;
33862;SDS011;20158;51.436;-2.742;2023-08-12T11:47:48;3.42;;;0.80;;
33862;SDS011;20158;51.436;-2.742;2023-08-12T11:50:27;4.18;;;1.15;;
33862;SDS011;20158;51.436;-2.742;2023-08-12T11:52:53;4.78;;;1.77;;
33862;SDS011;20158;51.436;-2.742;2023-08-12T11:55:25;7.63;;;1.50;;
33862;SDS011;20158;51.436;-2.742;2023-08-12T11:57:51;6.15;;;1.60;;
33862;SDS011;20158;51.436;-2.742;2023-08-12T12:00:17;6.95;;;2.08;;
33862;SDS011;20158;51.436;-2.742;2023-08-12T12:05:16;6.80;;;2.33;;
33862;SDS011;20158;51.436;-2.742;2023-08-12T12:07:43;5.68;;;3.25;;
33862;SDS011;20158;51.436;-2.742;2023-08-12T12:10:34;5.82;;;2.85;;
33862;SDS011;20158;51.436;-2.742;2023-08-12T12:12:59;4.43;;;2.58;;
33862;SDS011;20158;51.436;-2.742;2023-08-12T12:15:26;6.65;;;1.65;;
33862;SDS011;20158;51.436;-2.742;2023-08-12T12:17:52;4.72;;;1.52;;
33862;SDS011;20158;51.436;-2.742;2023-08-12T12:20:21;4.80;;;1.70;;
33862;SDS011;20158;51.436;-2.742;2023-08-12T12:22:48;4.95;;;1.70;;
33862;SDS011;20158;51.436;-2.742;2023-08-12T12:25:15;5.80;;;1.50;;
33862;SDS011;20158;51.436;-2.742;2023-08-12T12:27:47;4.93;;;1.13;;
33862;SDS011;20158;51.436;-2.742;2023-08-12T12:30:14;5.25;;;1.55;;
33862;SDS011;20158;51.436;-2.742;2023-08-12T12:32:44;3.70;;;1.40;;
33862;SDS011;20158;51.436;-2.742;2023-08-12T12:35:10;7.15;;;2.17;;
33862;SDS011;20158;51.436;-2.742;2023-08-12T12:37:37;5.43;;;1.77;;
33862;SDS011;20158;51.436;-2.742;2023-08-12T12:40:06;5.88;;;1.30;;
33862;SDS011;20158;51.436;-2.742;2023-08-12T12:42:33;6.25;;;1.80;;
33862;SDS011;20158;51.436;-2.742;2023-08-12T12:44:59;9.70;;;2.00;;
33862;SDS011;20158;51.436;-2.742;2023-08-12T12:47:28;7.28;;;1.90;;
33862;SDS011;20158;51.436;-2.742;2023-08-12T12:49:54;9.05;;;3.20;;
33862;SDS011;20158;51.436;-2.742;2023-08-12T12:52:20;8.02;;;1.98;;
33862;SDS011;20158;51.436;-2.742;2023-08-12T12:54:46;5.72;;;1.65;;
33862;SDS011;20158;51.436;-2.742;2023-08-12T12:57:12;6.38;;;1.92;;
33862;SDS011;20158;51.436;-2.742;2023-08-12T12:59:38;6.90;;;1.92;;
33862;SDS011;20158;51.436;-2.742;2023-08-12T13:02:04;7.30;;;2.20;;
33862;SDS011;20158;51.436;-2.742;2023-08-12T13:04:33;7.78;;;1.52;;
33862;SDS011;20158;51.436;-2.742;2023-08-12T13:06:59;6.10;;;1.73;;
33862;SDS011;20158;51.436;-2.742;2023-08-12T13:09:26;8.65;;;2.65;;
33862;SDS011;20158;51.436;-2.742;2023-08-12T13:11:55;10.50;;;2.17;;
33862;SDS011;20158;51.436;-2.742;2023-08-12T13:14:22;6.47;;;2.13;;
33862;SDS011;20158;51.436;-2.742;2023-08-12T13:16:49;4.43;;;1.55;;
33862;SDS011;20158;51.436;-2.742;2023-08-12T13:19:15;5.45;;;1.60;;
33862;SDS011;20158;51.436;-2.742;2023-08-12T13:21:41;5.50;;;1.77;;
33862;SDS011;20158;51.436;-2.742;2023-08-12T13:24:07;4.22;;;1.55;;
33862;SDS011;20158;51.436;-2.742;2023-08-12T13:26:36;2.35;;;0.63;;
33862;SDS011;20158;51.436;-2.742;2023-08-12T13:29:02;5.03;;;1.02;;
33862;SDS011;20158;51.436;-2.742;2023-08-12T13:31:29;3.10;;;1.08;;
33862;SDS011;20158;51.436;-2.742;2023-08-12T13:33:55;3.72;;;0.70;;
33862;SDS011;20158;51.436;-2.742;2023-08-12T13:36:21;3.50;;;0.77;;
33862;SDS011;20158;51.436;-2.742;2023-08-12T13:38:50;3.80;;;0.98;;
33862;SDS011;20158;51.436;-2.742;2023-08-12T13:41:19;6.20;;;1.85;;
33862;SDS011;20158;51.436;-2.742;2023-08-12T13:43:45;13.40;;;1.65;;
33862;SDS011;20158;51.436;-2.742;2023-08-12T13:46:11;3.47;;;1.00;;
33862;SDS011;20158;51.436;-2.742;2023-08-12T13:48:38;5.93;;;1.20;;
33862;SDS011;20158;51.436;-2.742;2023-08-12T13:51:04;4.38;;;1.40;;
33862;SDS011;20158;51.436;-2.742;2023-08-12T13:53:30;6.07;;;2.00;;
33862;SDS011;20158;51.436;-2.742;2023-08-12T13:55:56;3.55;;;1.25;;
33862;SDS011;20158;51.436;-2.742;2023-08-12T13:58:23;6.38;;;1.63;;
33862;SDS011;20158;51.436;-2.742;2023-08-12T14:00:49;2.90;;;0.98;;
33862;SDS011;20158;51.436;-2.742;2023-08-12T14:03:15;6.32;;;1.50;;
33862;SDS011;20158;51.436;-2.742;2023-08-12T14:05:42;7.18;;;2.25;;
33862;SDS011;20158;51.436;-2.742;2023-08-12T14:08:10;6.22;;;1.30;;
33862;SDS011;20158;51.436;-2.742;2023-08-12T14:10:36;3.58;;;1.00;;
33862;SDS011;20158;51.436;-2.742;2023-08-12T14:13:02;6.38;;;1.92;;
33862;SDS011;20158;51.436;-2.742;2023-08-12T14:15:29;7.85;;;2.10;;
33862;SDS011;20158;51.436;-2.742;2023-08-12T14:17:55;4.43;;;1.70;;
33862;SDS011;20158;51.436;-2.742;2023-08-12T14:20:21;7.85;;;2.08;;
33862;SDS011;20158;51.436;-2.742;2023-08-12T14:22:47;5.95;;;2.20;;
33862;SDS011;20158;51.436;-2.742;2023-08-12T14:25:13;7.90;;;2.30;;
33862;SDS011;20158;51.436;-2.742;2023-08-12T14:27:39;6.15;;;1.60;;
33862;SDS011;20158;51.436;-2.742;2023-08-12T14:30:05;4.22;;;1.67;;
33862;SDS011;20158;51.436;-2.742;2023-08-12T14:32:32;5.90;;;0.98;;
33862;SDS011;20158;51.436;-2.742;2023-08-12T14:34:58;2.90;;;1.15;;